Hernderson, Zimbabwe

6:42 AM CAT on August 22, 2014 (GMT +0200)
Borrowdale Brooke | Change Station
CLOSE
Current Station
Personal Weather Station
Location: Harare, MASHONALAND
Elevation: 4757 ft
Nearby Weather Stations

Elev 4757 ft 17.71 °S, 31.14 °E | Updated 3 seconds ago

Clear
Clear
52.7 °F
Feels Like 52.7 °F
N
0.0
Wind Variable Wind from SW
Gusts 0.0 mph

Today
High -- | Low -- °F
--% Chance of Precip.
Yesterday
High -- | Low -- °F
Precip. -- in
6:10 AM 5:47 PM
Waning Crescent, 10% visible
Pressure 30.12 in
Visibility -9999.0 miles
Clouds
Dew Point 42 °F
Humidity 67%
Rainfall 0.00 in
Snow Depth Not available.
UV Not available.
Pollen Not available.
Air Quality Not available.
Flu Activity Not available.
METAR FVHA 220400Z 07006KT CAVOK 14/05 Q1020 NOSIG RMK QFE 852.5

More Conditions Fewer Conditions

Pressure 30.12 in
Visibility -9999.0 miles
Clouds
Dew Point 42 °F
Humidity 67%
Rainfall 0.00 in
Snow Depth Not available.
UV Not available.
Pollen Not available.
Air Quality Not available.
Flu Activity Not available.
METAR FVHA 220400Z 07006KT CAVOK 14/05 Q1020 NOSIG RMK QFE 852.5

More Conditions Fewer Conditions

10-Day Weather Forecast

Almanac

Astronomy

Aug. 22, 2014 Rise Set
Actual Time 6:10 AM CAT 5:47 PM CAT
Civil Twilight 5:48 AM CAT 6:09 PM CAT
Nautical Twilight 5:23 AM CAT 6:35 PM CAT
Astronomical Twilight 4:57 AM CAT 7:00 PM CAT
Moon 3:42 AM CAT 3:20 PM CAT
Length of Visible Light 12h 21m
Length of Day
11h 36m
Tomorrow will be 0m 53s longer.
Waning Crescent, 10% of the Moon is Illuminated
Today
Waning Crescent
Aug 25
New
Sep 2
First Quarter
Sep 8
Full
Sep 15
Last Quarter

Yesterday's Extremes

Country Highs Country Lows

Community

WunderPhotos

Upload Photos

1,746,130 photos uploaded!

Nearby

Snow Depth

Not available.

Earthquake Activity

City Distance Mag. Time & Date
No recent earthquake activity has been reported nearby.
Minimum magnitude displayed is 2.5.

Coastal Water Temperatures

Place Temperature
No Stations Reporting

Nearby Weather Stations